createdAt,value
2018-05-02T00:00:37.947Z,96.30
2018-05-02T00:03:05.402Z,96.20
2018-05-02T00:05:32.866Z,96.30
2018-05-02T00:08:00.361Z,96.30
2018-05-02T00:10:28.633Z,96.30
2018-05-02T00:12:56.225Z,96.30
2018-05-02T00:15:23.690Z,96.50
2018-05-02T00:17:51.230Z,96.50
2018-05-02T00:20:18.698Z,96.50
2018-05-02T00:22:46.163Z,96.60
2018-05-02T00:25:13.641Z,96.50
2018-05-02T00:27:41.133Z,96.70
2018-05-02T00:30:09.364Z,96.90
2018-05-02T00:32:36.843Z,96.90
2018-05-02T00:35:05.813Z,96.80
2018-05-02T00:37:33.330Z,96.70
2018-05-02T00:40:01.559Z,96.50
2018-05-02T00:42:29.033Z,96.50
2018-05-02T00:44:56.485Z,96.70
2018-05-02T00:47:23.962Z,96.50
2018-05-02T00:49:52.186Z,96.60
2018-05-02T00:52:19.704Z,96.60
2018-05-02T00:54:47.931Z,96.80
2018-05-02T00:57:15.423Z,96.80
2018-05-02T00:59:42.896Z,96.90
2018-05-02T01:02:10.385Z,96.80
2018-05-02T01:04:37.845Z,96.90
2018-05-02T01:07:05.364Z,96.90
2018-05-02T01:09:33.593Z,97.30
2018-05-02T01:12:01.077Z,97.20
2018-05-02T01:14:28.532Z,97.30
2018-05-02T01:16:56.008Z,97.30
2018-05-02T01:19:24.232Z,97.90
2018-05-02T01:21:51.772Z,97.50
2018-05-02T01:24:19.332Z,97.50
2018-05-02T01:26:46.866Z,98.00
2018-05-02T01:29:15.127Z,97.70
2018-05-02T01:31:42.595Z,97.70
2018-05-02T01:34:10.848Z,97.60
2018-05-02T01:36:38.331Z,97.50
2018-05-02T01:39:06.592Z,97.50
2018-05-02T01:41:34.052Z,97.40
2018-05-02T01:44:02.308Z,98.00
2018-05-02T01:46:29.772Z,97.60
2018-05-02T01:51:56.686Z,98.20
2018-05-02T01:54:24.148Z,98.30
2018-05-02T01:56:51.653Z,98.40
2018-05-02T01:59:19.158Z,98.90
2018-05-02T02:01:46.631Z,98.90
2018-05-02T02:04:14.131Z,99.00
2018-05-02T02:06:41.596Z,99.10
2018-05-02T02:09:09.843Z,99.10
2018-05-02T02:11:37.322Z,99.00
2018-05-02T02:14:04.787Z,99.00
2018-05-02T02:16:33.012Z,98.70
2018-05-02T02:19:00.495Z,98.70
2018-05-02T02:21:27.971Z,98.40
2018-05-02T02:23:56.232Z,98.50
2018-05-02T02:26:23.771Z,98.20
2018-05-02T02:28:51.302Z,97.90
2018-05-02T02:31:18.779Z,98.00
2018-05-02T02:33:46.261Z,97.80
2018-05-02T02:36:13.782Z,97.90
2018-05-02T02:38:41.277Z,97.90
2018-05-02T02:41:08.741Z,98.00
2018-05-02T02:43:36.248Z,97.90
2018-05-02T02:46:03.729Z,97.70
2018-05-02T02:48:31.205Z,97.80
2018-05-02T02:50:58.781Z,98.10
2018-05-02T02:53:26.354Z,98.10
2018-05-02T02:55:54.609Z,98.20
2018-05-02T02:58:22.121Z,98.10
2018-05-02T03:00:49.579Z,98.10
2018-05-02T03:03:17.089Z,98.30
2018-05-02T03:05:44.540Z,98.30
2018-05-02T03:08:12.015Z,98.40
2018-05-02T03:10:40.320Z,98.20
2018-05-02T03:13:07.843Z,98.20
2018-05-02T03:15:36.119Z,98.30
2018-05-02T03:18:04.388Z,98.80
2018-05-02T03:20:31.900Z,98.50
2018-05-02T03:22:59.351Z,98.50
2018-05-02T03:25:26.840Z,98.50
2018-05-02T03:27:54.316Z,98.60
2018-05-02T03:30:21.783Z,98.50
2018-05-02T03:32:50.011Z,98.80
2018-05-02T03:35:17.481Z,98.80
2018-05-02T03:37:44.966Z,98.90
2018-05-02T03:40:12.428Z,98.90
2018-05-02T03:42:40.688Z,99.20
2018-05-02T03:45:08.198Z,99.10
2018-05-02T03:47:35.756Z,99.20
2018-05-02T03:50:03.238Z,99.20
2018-05-02T03:52:30.773Z,99.40
2018-05-02T03:54:58.332Z,99.50
2018-05-02T03:57:25.799Z,99.60
2018-05-02T04:00:05.174Z,99.60
2018-05-02T04:02:44.640Z,99.60
2018-05-02T04:05:24.712Z,99.60
2018-05-02T04:07:52.182Z,99.60
2018-05-02T04:10:19.662Z,99.90
2018-05-02T04:12:47.143Z,99.90
2018-05-02T04:15:14.611Z,99.90
2018-05-02T04:17:42.869Z,99.90
2018-05-02T04:20:10.333Z,99.90
2018-05-02T04:22:37.832Z,99.90
2018-05-02T04:25:05.317Z,99.90
2018-05-02T04:27:32.807Z,99.90
2018-05-02T04:30:00.312Z,99.90
2018-05-02T04:32:27.823Z,99.90
2018-05-02T04:34:55.279Z,99.90
2018-05-02T04:37:22.760Z,99.90
2018-05-02T04:39:51.032Z,99.90
2018-05-02T04:42:19.292Z,99.90
2018-05-02T04:44:46.757Z,99.90
2018-05-02T04:47:15.009Z,99.90
2018-05-02T04:49:42.586Z,99.90
2018-05-02T04:52:10.188Z,99.90
2018-05-02T04:54:37.747Z,99.90
2018-05-02T04:57:05.229Z,99.90
2018-05-02T04:59:32.948Z,99.90
2018-05-02T05:02:00.362Z,99.90
2018-05-02T05:04:27.841Z,99.90
2018-05-02T05:06:56.095Z,99.90
2018-05-02T05:09:23.617Z,99.90
2018-05-02T05:11:51.173Z,99.90
2018-05-02T05:14:18.679Z,99.90
2018-05-02T05:16:46.151Z,99.90
2018-05-02T05:19:14.396Z,99.90
2018-05-02T05:21:41.860Z,99.90
2018-05-02T05:24:09.476Z,99.90
2018-05-02T05:26:36.933Z,99.90
2018-05-02T05:29:04.493Z,99.90
2018-05-02T05:31:32.869Z,99.90
2018-05-02T05:34:00.352Z,99.90
2018-05-02T05:36:27.823Z,99.90
2018-05-02T05:38:55.299Z,99.90
2018-05-02T05:41:22.795Z,99.90
2018-05-02T05:43:50.279Z,99.90
2018-05-02T05:46:17.766Z,99.90
2018-05-02T05:48:45.250Z,99.90
2018-05-02T05:51:13.474Z,99.90
2018-05-02T05:53:40.956Z,99.90
2018-05-02T05:56:08.458Z,99.90
2018-05-02T05:58:35.939Z,99.90
2018-05-02T06:01:03.436Z,99.90
2018-05-02T06:03:30.917Z,99.90
2018-05-02T06:05:59.159Z,99.70
2018-05-02T06:08:26.631Z,99.70
2018-05-02T06:10:54.137Z,99.70
2018-05-02T06:13:21.643Z,99.80
2018-05-02T06:15:49.933Z,99.40
2018-05-02T06:18:18.181Z,99.60
2018-05-02T06:20:45.651Z,99.60
2018-05-02T06:23:13.201Z,99.10
2018-05-02T06:25:40.692Z,98.90
2018-05-02T06:28:08.940Z,98.80
2018-05-02T06:30:36.415Z,98.80
2018-05-02T06:33:04.667Z,97.90
2018-05-02T06:35:32.168Z,97.90
2018-05-02T06:37:59.710Z,98.10
2018-05-02T06:40:27.153Z,98.10
2018-05-02T06:42:54.642Z,97.80
2018-05-02T06:45:22.119Z,97.20
2018-05-02T06:47:49.580Z,97.20
2018-05-02T06:50:17.119Z,96.80
2018-05-02T06:52:44.561Z,96.60
2018-05-02T06:55:12.075Z,96.40
2018-05-02T06:57:39.535Z,96.20
2018-05-02T07:00:07.117Z,96.10
2018-05-02T07:02:34.571Z,95.90
2018-05-02T07:05:02.850Z,95.60
2018-05-02T07:07:30.354Z,95.50
2018-05-02T07:09:57.838Z,95.10
2018-05-02T07:12:25.313Z,94.60
2018-05-02T07:14:52.798Z,95.00
2018-05-02T07:17:21.031Z,94.00
2018-05-02T07:19:48.515Z,94.00
2018-05-02T07:22:16.828Z,93.10
2018-05-02T07:24:44.308Z,93.10
2018-05-02T07:27:11.765Z,93.20
2018-05-02T07:29:39.259Z,93.30
2018-05-02T07:32:06.726Z,92.80
2018-05-02T07:34:34.984Z,92.40
2018-05-02T07:37:02.474Z,92.30
2018-05-02T07:39:30.767Z,92.40
2018-05-02T07:41:58.291Z,92.40
2018-05-02T07:44:26.600Z,92.40
2018-05-02T07:46:54.079Z,92.30
2018-05-02T07:49:21.561Z,92.10
2018-05-02T07:51:49.074Z,91.90
2018-05-02T07:54:16.577Z,91.90
2018-05-02T07:56:44.079Z,91.90
2018-05-02T07:59:11.535Z,91.90
2018-05-02T08:01:38.995Z,91.80
2018-05-02T08:04:06.493Z,91.80
2018-05-02T08:06:33.968Z,91.60
2018-05-02T08:09:02.241Z,91.20
2018-05-02T08:11:29.705Z,91.00
2018-05-02T08:13:57.187Z,91.10
2018-05-02T08:16:25.420Z,90.60
2018-05-02T08:18:52.907Z,90.60
2018-05-02T08:21:21.136Z,90.40
2018-05-02T08:23:48.616Z,90.30
2018-05-02T08:26:16.076Z,90.20
2018-05-02T08:28:43.564Z,90.10
2018-05-02T08:31:11.865Z,88.60
2018-05-02T08:33:39.364Z,88.50
2018-05-02T08:36:06.882Z,86.30
2018-05-02T08:38:34.371Z,86.00
2018-05-02T08:41:01.829Z,86.10
2018-05-02T08:43:29.400Z,86.20
2018-05-02T08:45:56.856Z,83.70
2018-05-02T08:48:24.320Z,83.60
2018-05-02T08:50:51.848Z,82.60
2018-05-02T08:53:19.316Z,82.80
2018-05-02T08:55:46.787Z,82.80
2018-05-02T08:58:14.244Z,82.20
2018-05-02T09:00:41.836Z,80.40
2018-05-02T09:03:10.085Z,81.10
2018-05-02T09:05:39.204Z,80.80
2018-05-02T09:08:07.436Z,80.30
2018-05-02T09:10:34.929Z,80.20
2018-05-02T09:13:03.168Z,79.50
2018-05-02T09:15:30.666Z,79.50
2018-05-02T09:17:58.913Z,77.30
2018-05-02T09:20:26.498Z,77.30
2018-05-02T09:22:54.731Z,78.10
2018-05-02T09:25:22.212Z,78.20
2018-05-02T09:27:50.445Z,76.70
2018-05-02T09:30:17.948Z,76.70
2018-05-02T09:32:45.404Z,77.20
2018-05-02T09:35:13.656Z,76.50
2018-05-02T09:37:41.115Z,76.50
2018-05-02T09:40:08.609Z,76.80
2018-05-02T09:42:36.872Z,76.60
2018-05-02T09:45:04.371Z,76.60
2018-05-02T09:47:31.854Z,76.60
2018-05-02T09:49:59.336Z,76.50
2018-05-02T09:52:27.616Z,75.20
2018-05-02T09:54:55.105Z,75.20
2018-05-02T09:57:23.354Z,75.70
2018-05-02T09:59:51.616Z,74.10
2018-05-02T10:02:19.083Z,74.10
2018-05-02T10:04:46.652Z,73.50
2018-05-02T10:07:14.909Z,71.60
2018-05-02T10:09:42.435Z,71.50
2018-05-02T10:12:09.904Z,71.70
2018-05-02T10:14:37.394Z,70.90
2018-05-02T10:17:05.680Z,71.50
2018-05-02T10:19:33.939Z,72.30
2018-05-02T10:22:01.396Z,72.20
2018-05-02T10:24:28.968Z,72.60
2018-05-02T10:26:57.926Z,70.70
2018-05-02T10:29:25.410Z,70.60
2018-05-02T10:31:53.004Z,70.80
2018-05-02T10:34:20.495Z,71.00
2018-05-02T10:36:48.097Z,70.40
2018-05-02T10:39:16.344Z,69.60
2018-05-02T10:41:43.827Z,69.40
2018-05-02T10:44:11.379Z,69.40
2018-05-02T10:46:38.849Z,68.20
2018-05-02T10:49:07.095Z,67.40
2018-05-02T10:51:34.554Z,67.40
2018-05-02T10:54:02.056Z,68.40
2018-05-02T10:56:30.299Z,66.70
2018-05-02T10:58:57.777Z,66.60
2018-05-02T11:01:26.085Z,67.70
2018-05-02T11:03:53.564Z,67.60
2018-05-02T11:06:21.063Z,67.20
2018-05-02T11:08:49.298Z,67.10
2018-05-02T11:11:16.787Z,66.80
2018-05-02T11:13:45.036Z,66.20
2018-05-02T11:16:12.535Z,66.00
2018-05-02T11:18:40.808Z,67.50
2018-05-02T11:21:09.077Z,65.90
2018-05-02T11:23:37.304Z,65.30
2018-05-02T11:26:04.790Z,65.30
2018-05-02T11:28:32.271Z,63.60
2018-05-02T11:31:00.515Z,64.20
2018-05-02T11:33:28.011Z,64.10
2018-05-02T11:35:56.251Z,65.80
2018-05-02T11:38:23.714Z,65.80
2018-05-02T11:40:51.338Z,64.50
2018-05-02T11:43:18.813Z,63.70
2018-05-02T11:45:46.317Z,63.60
2018-05-02T11:48:14.595Z,66.10
2018-05-02T11:50:42.863Z,65.80
2018-05-02T11:53:11.110Z,67.00
2018-05-02T11:55:38.602Z,66.20
2018-05-02T11:58:06.955Z,64.90
2018-05-02T12:00:36.104Z,65.20
2018-05-02T12:03:03.581Z,65.10
2018-05-02T12:05:31.078Z,65.90
2018-05-02T12:07:58.547Z,65.30
2018-05-02T12:10:26.850Z,63.50
2018-05-02T12:12:55.776Z,63.50
2018-05-02T12:15:23.360Z,63.50
2018-05-02T12:17:52.334Z,62.20
2018-05-02T12:20:19.915Z,62.20
2018-05-02T12:22:47.395Z,61.80
2018-05-02T12:25:15.651Z,63.00
2018-05-02T12:27:43.188Z,62.80
2018-05-02T12:30:11.367Z,60.90
2018-05-02T12:32:39.620Z,61.50
2018-05-02T12:35:07.160Z,61.50
2018-05-02T12:37:34.623Z,61.20
2018-05-02T12:40:02.131Z,60.30
2018-05-02T12:42:30.355Z,59.00
2018-05-02T12:44:57.865Z,59.00
2018-05-02T12:47:25.374Z,59.20
2018-05-02T12:49:52.859Z,56.60
2018-05-02T12:52:20.331Z,56.70
2018-05-02T12:54:47.809Z,57.50
2018-05-02T12:57:16.057Z,56.70
2018-05-02T12:59:45.042Z,53.90
2018-05-02T13:02:12.521Z,53.90
2018-05-02T13:04:40.768Z,52.20
2018-05-02T13:07:08.300Z,52.20
2018-05-02T13:09:35.770Z,50.00
2018-05-02T13:12:03.272Z,49.50
2018-05-02T13:14:31.500Z,49.40
2018-05-02T13:16:59.005Z,49.10
2018-05-02T13:19:26.464Z,50.00
2018-05-02T13:21:54.719Z,50.80
2018-05-02T13:24:22.191Z,50.80
2018-05-02T13:26:50.450Z,49.60
2018-05-02T13:29:17.933Z,49.40
2018-05-02T13:31:46.185Z,49.00
2018-05-02T13:34:13.695Z,49.00
2018-05-02T13:36:41.176Z,46.10
2018-05-02T13:39:08.715Z,45.60
2018-05-02T13:41:36.213Z,47.00
2018-05-02T13:44:03.746Z,46.80
2018-05-02T13:46:31.238Z,45.30
2018-05-02T13:48:58.707Z,46.20
2018-05-02T13:51:26.206Z,48.90
2018-05-02T13:53:53.760Z,48.80
2018-05-02T13:56:21.244Z,49.70
2018-05-02T13:58:48.728Z,50.20
2018-05-02T14:01:16.204Z,51.60
2018-05-02T14:03:44.431Z,52.90
2018-05-02T14:06:11.936Z,53.50
2018-05-02T14:08:40.170Z,51.70
2018-05-02T14:11:07.643Z,51.50
2018-05-02T14:13:35.879Z,54.70
2018-05-02T14:16:03.439Z,54.60
2018-05-02T14:18:30.846Z,55.60
2018-05-02T14:20:58.411Z,54.40
2018-05-02T14:23:26.641Z,54.70
2018-05-02T14:25:54.170Z,54.50
2018-05-02T14:28:21.630Z,53.80
2018-05-02T14:30:49.112Z,53.50
2018-05-02T14:33:16.576Z,53.30
2018-05-02T14:35:44.067Z,51.60
2018-05-02T14:38:11.594Z,51.60
2018-05-02T14:40:39.799Z,50.90
2018-05-02T14:43:07.364Z,50.90
2018-05-02T14:45:35.608Z,52.50
2018-05-02T14:48:03.076Z,52.50
2018-05-02T14:50:30.555Z,53.30
2018-05-02T14:52:58.785Z,53.20
2018-05-02T14:55:26.274Z,53.10
2018-05-02T14:57:53.799Z,53.30
2018-05-02T15:00:21.273Z,52.70
2018-05-02T15:02:48.739Z,52.80
2018-05-02T15:05:16.232Z,51.10
2018-05-02T15:07:44.472Z,51.80
2018-05-02T15:10:11.970Z,51.60
2018-05-02T15:12:39.470Z,51.50
2018-05-02T15:15:06.943Z,50.90
2018-05-02T15:17:34.414Z,50.50
2018-05-02T15:20:01.919Z,48.80
2018-05-02T15:22:29.415Z,49.80
2018-05-02T15:24:56.888Z,49.70
2018-05-02T15:27:24.368Z,46.90
2018-05-02T15:29:51.838Z,47.90
2018-05-02T15:32:19.313Z,47.50
2018-05-02T15:34:46.770Z,47.10
2018-05-02T15:37:14.253Z,46.80
2018-05-02T15:39:41.789Z,46.00
2018-05-02T15:42:09.267Z,45.50
2018-05-02T15:44:36.764Z,43.90
2018-05-02T15:47:05.008Z,44.20
2018-05-02T15:49:32.480Z,44.20
2018-05-02T15:52:00.016Z,44.00
2018-05-02T15:54:27.454Z,43.90
2018-05-02T15:56:54.941Z,42.00
2018-05-02T15:59:22.412Z,43.90
2018-05-02T16:01:49.889Z,45.30
2018-05-02T16:04:18.119Z,44.60
2018-05-02T16:06:45.746Z,44.60
2018-05-02T16:09:13.225Z,43.60
2018-05-02T16:11:40.703Z,44.30
2018-05-02T16:14:09.756Z,44.90
2018-05-02T16:16:37.295Z,44.90
2018-05-02T16:19:04.831Z,44.70
2018-05-02T16:21:32.312Z,45.20
2018-05-02T16:24:00.570Z,45.50
2018-05-02T16:26:28.838Z,46.40
2018-05-02T16:28:56.313Z,45.70
2018-05-02T16:31:24.620Z,46.40
2018-05-02T16:33:52.104Z,46.30
2018-05-02T16:36:19.594Z,46.90
2018-05-02T16:38:47.059Z,47.00
2018-05-02T16:41:15.319Z,48.30
2018-05-02T16:43:42.780Z,48.20
2018-05-02T16:46:10.384Z,48.90
2018-05-02T16:48:37.856Z,48.90
2018-05-02T16:51:05.352Z,49.30
2018-05-02T16:53:32.809Z,48.70
2018-05-02T16:56:01.079Z,48.60
2018-05-02T16:58:28.541Z,48.00
2018-05-02T17:00:56.050Z,48.30
2018-05-02T17:03:23.560Z,47.50
2018-05-02T17:05:51.849Z,49.80
2018-05-02T17:08:20.080Z,51.10
2018-05-02T17:10:47.671Z,51.00
2018-05-02T17:13:15.144Z,51.10
2018-05-02T17:15:43.420Z,50.90
2018-05-02T17:18:10.912Z,50.80
2018-05-02T17:20:38.401Z,50.90
2018-05-02T17:23:05.880Z,51.50
2018-05-02T17:25:33.478Z,50.90
2018-05-02T17:28:00.967Z,52.00
2018-05-02T17:30:28.530Z,51.60
2018-05-02T17:32:56.008Z,51.90
2018-05-02T17:35:24.460Z,52.00
2018-05-02T17:37:51.939Z,52.20
2018-05-02T17:40:19.440Z,52.50
2018-05-02T17:42:46.931Z,53.10
2018-05-02T17:45:14.404Z,53.90
2018-05-02T17:47:41.884Z,54.60
2018-05-02T17:50:10.161Z,58.40
2018-05-02T17:52:38.413Z,59.50
2018-05-02T17:55:05.915Z,59.50
2018-05-02T17:57:33.430Z,60.00
2018-05-02T18:00:00.912Z,60.80
2018-05-02T18:02:29.164Z,61.90
2018-05-02T18:04:56.637Z,61.90
2018-05-02T18:07:24.144Z,63.00
2018-05-02T18:09:51.629Z,63.60
2018-05-02T18:12:19.112Z,63.90
2018-05-02T18:14:47.363Z,64.80
2018-05-02T18:17:14.853Z,64.50
2018-05-02T18:19:43.512Z,65.60
2018-05-02T18:22:11.106Z,65.50
2018-05-02T18:24:39.358Z,66.50
2018-05-02T18:27:06.861Z,66.50
2018-05-02T18:29:34.334Z,66.50
2018-05-02T18:32:01.831Z,66.70
2018-05-02T18:34:29.309Z,67.00
2018-05-02T18:36:57.596Z,67.20
2018-05-02T18:39:25.067Z,67.10
2018-05-02T18:41:52.573Z,67.20
2018-05-02T18:44:20.041Z,67.40
2018-05-02T18:46:47.588Z,67.10
2018-05-02T18:49:15.064Z,67.30
2018-05-02T18:51:43.323Z,68.00
2018-05-02T18:54:10.779Z,67.80
2018-05-02T18:56:38.289Z,68.50
2018-05-02T18:59:05.759Z,68.80
2018-05-02T19:01:33.506Z,68.80
2018-05-02T19:04:00.997Z,68.80
2018-05-02T19:06:28.499Z,68.80
2018-05-02T19:08:56.763Z,69.50
2018-05-02T19:11:25.039Z,70.00
2018-05-02T19:14:08.228Z,70.00
2018-05-02T19:16:35.739Z,70.50
2018-05-02T19:19:09.611Z,71.00
2018-05-02T19:21:37.130Z,70.90
2018-05-02T19:24:04.606Z,70.70
2018-05-02T19:26:37.079Z,70.70
2018-05-02T19:29:04.569Z,71.30
2018-05-02T19:31:37.897Z,71.80
2018-05-02T19:34:05.402Z,72.60
2018-05-02T19:36:32.981Z,73.00
2018-05-02T19:39:00.505Z,73.40
2018-05-02T19:41:33.614Z,73.30
2018-05-02T19:44:02.983Z,73.60
2018-05-02T19:46:30.575Z,73.90
2018-05-02T19:48:58.050Z,74.40
2018-05-02T19:51:32.109Z,74.70
2018-05-02T19:53:59.651Z,74.70
2018-05-02T19:56:27.124Z,74.90
2018-05-02T19:58:54.646Z,74.90
2018-05-02T20:01:28.521Z,77.20
2018-05-02T20:03:56.019Z,76.70
2018-05-02T20:06:24.393Z,77.60
2018-05-02T20:08:57.450Z,77.50
2018-05-02T20:11:30.656Z,77.70
2018-05-02T20:14:02.617Z,78.20
2018-05-02T20:16:31.630Z,78.40
2018-05-02T20:18:59.958Z,78.70
2018-05-02T20:21:27.408Z,78.80
2018-05-02T20:23:54.955Z,78.70
2018-05-02T20:26:22.492Z,78.80
2018-05-02T20:28:50.744Z,79.30
2018-05-02T20:31:18.222Z,79.30
2018-05-02T20:33:46.485Z,81.20
2018-05-02T20:36:14.711Z,82.40
2018-05-02T20:38:42.251Z,81.50
2018-05-02T20:41:09.765Z,81.40
2018-05-02T20:43:37.261Z,81.60
2018-05-02T20:46:04.748Z,81.90
2018-05-02T20:48:32.240Z,82.90
2018-05-02T20:50:59.733Z,83.50
2018-05-02T20:53:27.507Z,84.20
2018-05-02T20:55:54.975Z,85.20
2018-05-02T20:58:22.546Z,86.00
2018-05-02T21:00:50.005Z,86.10
2018-05-02T21:03:17.597Z,86.40
2018-05-02T21:05:45.080Z,86.00
2018-05-02T21:08:12.575Z,86.20
2018-05-02T21:10:40.041Z,86.30
2018-05-02T21:13:07.527Z,86.60
2018-05-02T21:15:36.049Z,85.90
2018-05-02T21:18:03.529Z,85.90
2018-05-02T21:20:30.989Z,85.80
2018-05-02T21:22:58.586Z,85.50
2018-05-02T21:25:26.833Z,85.20
2018-05-02T21:27:54.356Z,85.20
2018-05-02T21:30:21.857Z,86.40
2018-05-02T21:32:49.609Z,85.80
2018-05-02T21:35:17.072Z,85.80
2018-05-02T21:37:44.600Z,86.20
2018-05-02T21:40:12.106Z,85.60
2018-05-02T21:42:39.707Z,85.80
2018-05-02T21:45:07.372Z,85.70
2018-05-02T21:47:34.843Z,86.20
2018-05-02T21:50:02.471Z,86.80
2018-05-02T21:52:30.710Z,87.40
2018-05-02T21:54:58.220Z,87.40
2018-05-02T21:57:25.720Z,87.20
2018-05-02T21:59:53.284Z,87.50
2018-05-02T22:02:20.735Z,87.60
2018-05-02T22:04:48.252Z,88.20
2018-05-02T22:07:15.710Z,88.40
2018-05-02T22:09:44.192Z,88.50
2018-05-02T22:12:11.681Z,88.50
2018-05-02T22:14:39.163Z,88.60
2018-05-02T22:17:06.627Z,88.60
2018-05-02T22:19:34.111Z,88.90
2018-05-02T22:22:01.573Z,90.00
2018-05-02T22:24:29.067Z,89.60
2018-05-02T22:26:56.536Z,90.00
2018-05-02T22:29:24.055Z,90.10
2018-05-02T22:31:51.597Z,90.40
2018-05-02T22:34:19.081Z,90.40
2018-05-02T22:36:46.568Z,90.60
2018-05-02T22:39:14.324Z,90.60
2018-05-02T22:41:41.791Z,90.70
2018-05-02T22:44:09.268Z,90.80
2018-05-02T22:46:37.513Z,91.30
2018-05-02T22:49:05.403Z,91.00
2018-05-02T22:51:32.869Z,91.20
2018-05-02T22:54:01.141Z,91.10
2018-05-02T22:56:29.463Z,91.30
2018-05-02T22:58:56.944Z,91.30
2018-05-02T23:01:24.436Z,91.40
2018-05-02T23:03:52.691Z,91.50
2018-05-02T23:06:20.167Z,91.50
2018-05-02T23:08:47.658Z,91.50
2018-05-02T23:11:15.120Z,91.50
2018-05-02T23:13:42.596Z,91.40
2018-05-02T23:16:10.056Z,91.30
2018-05-02T23:18:37.593Z,91.30
2018-05-02T23:21:05.046Z,91.20
2018-05-02T23:23:32.611Z,91.20
2018-05-02T23:26:00.091Z,91.20
2018-05-02T23:28:27.580Z,91.40
2018-05-02T23:30:55.053Z,91.40
2018-05-02T23:33:23.317Z,91.50
2018-05-02T23:35:50.773Z,91.40
2018-05-02T23:38:18.290Z,91.40
2018-05-02T23:40:45.751Z,91.50
2018-05-02T23:43:13.235Z,91.50
2018-05-02T23:45:40.699Z,91.40
2018-05-02T23:48:08.171Z,91.20
2018-05-02T23:50:36.417Z,91.10
2018-05-02T23:53:03.872Z,91.10
2018-05-02T23:55:31.372Z,91.10
2018-05-02T23:57:59.635Z,91.30
